createdAt,value
2019-03-30T00:02:07.720Z,5.90
2019-03-30T00:04:34.373Z,5.90
2019-03-30T00:07:01.004Z,5.70
2019-03-30T00:09:27.336Z,5.70
2019-03-30T00:11:53.737Z,5.70
2019-03-30T00:14:20.044Z,5.50
2019-03-30T00:16:46.499Z,5.40
2019-03-30T00:19:12.851Z,5.30
2019-03-30T00:21:39.543Z,5.30
2019-03-30T00:24:06.458Z,5.30
2019-03-30T00:26:33.102Z,5.30
2019-03-30T00:28:59.748Z,5.40
2019-03-30T00:31:26.049Z,5.40
2019-03-30T00:33:52.400Z,5.50
2019-03-30T00:36:18.810Z,5.50
2019-03-30T00:38:45.115Z,5.50
2019-03-30T00:41:11.516Z,5.40
2019-03-30T00:43:38.235Z,5.40
2019-03-30T00:46:04.889Z,5.40
2019-03-30T00:48:32.291Z,5.40
2019-03-30T00:50:58.608Z,5.40
2019-03-30T00:53:25.366Z,5.30
2019-03-30T00:55:51.710Z,5.40
2019-03-30T00:58:18.396Z,5.30
2019-03-30T01:00:44.812Z,5.30
2019-03-30T01:03:11.158Z,5.30
2019-03-30T01:05:37.543Z,5.30
2019-03-30T01:08:03.916Z,5.20
2019-03-30T01:10:30.673Z,5.20
2019-03-30T01:12:56.984Z,5.20
2019-03-30T01:15:23.309Z,5.10
2019-03-30T01:17:50.049Z,5.10
2019-03-30T01:20:17.817Z,5.10
2019-03-30T01:22:44.171Z,5.00
2019-03-30T01:25:11.092Z,5.00
2019-03-30T01:27:37.546Z,5.00
2019-03-30T01:30:05.598Z,4.90
2019-03-30T01:32:34.913Z,4.90
2019-03-30T01:35:01.239Z,4.90
2019-03-30T01:37:27.995Z,4.80
2019-03-30T01:39:54.704Z,4.90
2019-03-30T01:42:21.088Z,4.90
2019-03-30T01:44:47.421Z,4.90
2019-03-30T01:47:14.428Z,4.90
2019-03-30T01:49:40.799Z,4.90
2019-03-30T01:52:07.530Z,4.90
2019-03-30T01:54:34.227Z,4.80
2019-03-30T01:57:00.853Z,4.90
2019-03-30T01:59:27.188Z,4.80
2019-03-30T02:01:53.526Z,4.80
2019-03-30T02:04:20.176Z,4.90
2019-03-30T02:06:46.539Z,4.80
2019-03-30T02:09:12.897Z,4.80
2019-03-30T02:11:40.183Z,4.80
2019-03-30T02:14:06.826Z,4.80
2019-03-30T02:16:33.454Z,4.80
2019-03-30T02:18:59.823Z,4.90
2019-03-30T02:21:26.459Z,4.80
2019-03-30T02:23:52.802Z,4.80
2019-03-30T02:26:19.197Z,4.80
2019-03-30T02:28:45.609Z,4.80
2019-03-30T02:31:11.967Z,4.70
2019-03-30T02:33:44.406Z,4.70
2019-03-30T02:36:10.796Z,4.70
2019-03-30T02:38:37.120Z,4.80
2019-03-30T02:41:03.472Z,4.80
2019-03-30T02:43:30.402Z,4.80
2019-03-30T02:45:56.757Z,4.70
2019-03-30T02:48:23.391Z,4.60
2019-03-30T02:50:50.774Z,4.60
2019-03-30T02:53:19.222Z,4.70
2019-03-30T02:55:45.761Z,4.70
2019-03-30T02:58:12.093Z,4.70
2019-03-30T03:00:39.216Z,4.70
2019-03-30T03:03:05.564Z,4.70
2019-03-30T03:05:33.500Z,4.70
2019-03-30T03:07:59.909Z,4.70
2019-03-30T03:10:26.351Z,4.70
2019-03-30T03:12:53.021Z,4.60
2019-03-30T03:15:19.353Z,4.50
2019-03-30T03:17:45.838Z,4.40
2019-03-30T03:20:12.769Z,4.40
2019-03-30T03:22:39.087Z,4.40
2019-03-30T03:25:05.833Z,4.30
2019-03-30T03:27:32.544Z,4.30
2019-03-30T03:29:59.358Z,4.30
2019-03-30T03:32:25.736Z,4.30
2019-03-30T03:34:52.128Z,4.40
2019-03-30T03:37:19.493Z,4.30
2019-03-30T03:39:47.565Z,4.30
2019-03-30T03:42:14.106Z,4.30
2019-03-30T03:44:41.473Z,4.10
2019-03-30T03:47:07.830Z,4.00
2019-03-30T03:49:34.959Z,4.00
2019-03-30T03:52:01.457Z,3.90
2019-03-30T03:54:28.201Z,3.90
2019-03-30T03:56:56.451Z,3.90
2019-03-30T03:59:26.316Z,3.90
2019-03-30T04:01:53.778Z,3.90
2019-03-30T04:04:20.998Z,3.80
2019-03-30T04:06:48.624Z,3.80
2019-03-30T04:09:15.353Z,3.90
2019-03-30T04:11:42.322Z,3.90
2019-03-30T04:14:10.567Z,4.00
2019-03-30T04:16:37.342Z,4.00
2019-03-30T04:19:03.711Z,3.90
2019-03-30T04:21:43.923Z,3.90
2019-03-30T04:23:59.272Z,3.90
2019-03-30T04:26:26.292Z,3.90
2019-03-30T04:28:52.653Z,3.90
2019-03-30T04:31:18.979Z,3.90
2019-03-30T04:33:45.452Z,3.80
2019-03-30T04:36:11.801Z,3.80
2019-03-30T04:38:38.122Z,3.70
2019-03-30T04:41:04.801Z,3.70
2019-03-30T04:43:31.308Z,3.80
2019-03-30T04:46:01.847Z,3.80
2019-03-30T04:48:29.644Z,3.70
2019-03-30T04:50:56.472Z,3.80
2019-03-30T04:53:22.869Z,3.80
2019-03-30T04:55:49.252Z,3.80
2019-03-30T04:58:15.893Z,3.70
2019-03-30T05:00:42.503Z,3.80
2019-03-30T05:03:08.868Z,3.80
2019-03-30T05:05:36.807Z,3.80
2019-03-30T05:08:03.158Z,3.80
2019-03-30T05:10:29.872Z,3.80
2019-03-30T05:12:56.222Z,3.90
2019-03-30T05:15:22.859Z,4.00
2019-03-30T05:17:50.217Z,4.10
2019-03-30T05:20:16.949Z,4.10
2019-03-30T05:22:43.273Z,4.10
2019-03-30T05:25:09.618Z,4.00
2019-03-30T05:27:35.973Z,4.00
2019-03-30T05:30:05.548Z,4.10
2019-03-30T05:32:32.054Z,4.30
2019-03-30T05:34:58.594Z,4.40
2019-03-30T05:37:24.957Z,4.50
2019-03-30T05:39:51.579Z,4.50
2019-03-30T05:42:17.969Z,4.50
2019-03-30T05:44:44.323Z,4.60
2019-03-30T05:47:11.113Z,4.60
2019-03-30T05:49:37.522Z,4.80
2019-03-30T05:52:03.845Z,4.80
2019-03-30T05:54:30.155Z,5.00
2019-03-30T05:56:56.496Z,5.10
2019-03-30T05:59:22.834Z,5.30
2019-03-30T06:02:09.093Z,5.30
2019-03-30T06:04:35.442Z,5.40
2019-03-30T06:07:02.127Z,5.70
2019-03-30T06:09:28.456Z,5.90
2019-03-30T06:11:55.189Z,5.90
2019-03-30T06:14:21.940Z,6.10
2019-03-30T06:16:48.431Z,6.20
2019-03-30T06:19:15.109Z,6.30
2019-03-30T06:21:41.838Z,6.50
2019-03-30T06:24:08.179Z,6.60
2019-03-30T06:26:34.825Z,6.60
2019-03-30T06:29:01.575Z,6.70
2019-03-30T06:31:28.405Z,6.90
2019-03-30T06:33:54.736Z,7.10
2019-03-30T06:36:21.475Z,7.00
2019-03-30T06:38:47.784Z,7.20
2019-03-30T06:41:14.168Z,7.40
2019-03-30T06:43:40.493Z,7.50
2019-03-30T06:46:07.193Z,7.60
2019-03-30T06:48:36.136Z,7.70
2019-03-30T06:51:02.427Z,7.70
2019-03-30T06:53:28.924Z,7.80
2019-03-30T06:55:55.309Z,8.00
2019-03-30T06:58:21.689Z,8.20
2019-03-30T07:00:48.590Z,8.30
2019-03-30T07:03:15.004Z,8.50
2019-03-30T07:05:42.319Z,8.70
2019-03-30T07:08:15.688Z,8.80
2019-03-30T07:10:42.641Z,9.10
2019-03-30T07:13:09.145Z,9.10
2019-03-30T07:15:46.389Z,9.40
2019-03-30T07:18:14.867Z,9.70
2019-03-30T07:20:41.393Z,9.60
2019-03-30T07:23:12.861Z,9.50
2019-03-30T07:25:40.590Z,9.60
2019-03-30T07:28:08.425Z,9.90
2019-03-30T07:30:35.060Z,9.90
2019-03-30T07:33:02.044Z,10.10
2019-03-30T07:35:28.431Z,10.40
2019-03-30T07:37:55.082Z,10.50
2019-03-30T07:40:21.861Z,10.40
2019-03-30T07:42:48.303Z,10.40
2019-03-30T07:45:14.618Z,10.60
2019-03-30T07:47:40.941Z,10.80
2019-03-30T07:50:07.496Z,10.60
2019-03-30T07:52:34.042Z,10.50
2019-03-30T07:55:00.424Z,10.70
2019-03-30T07:57:27.187Z,10.90
2019-03-30T07:59:53.538Z,10.90
2019-03-30T08:02:19.876Z,11.00
2019-03-30T08:04:46.276Z,11.20
2019-03-30T08:07:12.611Z,11.60
2019-03-30T08:09:38.946Z,11.70
2019-03-30T08:12:05.860Z,11.70
2019-03-30T08:14:32.191Z,12.00
2019-03-30T08:16:58.522Z,12.20
2019-03-30T08:19:24.861Z,12.30
2019-03-30T08:21:51.174Z,12.40
2019-03-30T08:24:18.925Z,12.40
2019-03-30T08:26:46.923Z,12.20
2019-03-30T08:29:13.704Z,12.30
2019-03-30T08:31:40.413Z,12.40
2019-03-30T08:34:06.793Z,12.40
2019-03-30T08:36:33.482Z,12.50
2019-03-30T08:38:59.852Z,12.60
2019-03-30T08:41:27.321Z,12.60
2019-03-30T08:43:54.025Z,12.80
2019-03-30T08:46:20.407Z,12.90
2019-03-30T08:48:47.092Z,13.00
2019-03-30T08:51:13.730Z,13.30
2019-03-30T08:53:53.714Z,13.60
2019-03-30T08:56:08.628Z,13.60
2019-03-30T08:58:36.127Z,13.60
2019-03-30T09:01:02.616Z,13.60
2019-03-30T09:03:29.002Z,13.60
2019-03-30T09:05:55.567Z,13.70
2019-03-30T09:08:22.229Z,13.90
2019-03-30T09:10:48.591Z,13.80
2019-03-30T09:13:15.259Z,14.00
2019-03-30T09:15:41.639Z,14.00
2019-03-30T09:18:08.397Z,14.20
2019-03-30T09:20:35.569Z,14.50
2019-03-30T09:23:02.282Z,14.80
2019-03-30T09:25:28.721Z,15.00
2019-03-30T09:27:55.250Z,14.80
2019-03-30T09:30:22.602Z,15.00
2019-03-30T09:32:49.243Z,15.10
2019-03-30T09:35:15.947Z,15.10
2019-03-30T09:37:42.270Z,15.10
2019-03-30T09:40:09.534Z,15.10
2019-03-30T09:42:36.144Z,15.10
2019-03-30T09:45:05.380Z,15.40
2019-03-30T09:47:32.154Z,15.60
2019-03-30T09:50:02.132Z,15.40
2019-03-30T09:52:26.837Z,15.30
2019-03-30T09:54:53.488Z,15.20
2019-03-30T09:57:20.154Z,15.30
2019-03-30T09:59:46.481Z,15.40
2019-03-30T10:02:12.937Z,15.60
2019-03-30T10:04:39.590Z,15.70
2019-03-30T10:07:06.300Z,15.70
2019-03-30T10:09:32.682Z,15.50
2019-03-30T10:11:59.349Z,15.40
2019-03-30T10:14:26.009Z,15.50
2019-03-30T10:16:52.863Z,15.60
2019-03-30T10:19:19.189Z,15.60
2019-03-30T10:21:46.080Z,15.70
2019-03-30T10:24:12.747Z,16.00
2019-03-30T10:26:39.149Z,15.90
2019-03-30T10:29:05.811Z,15.90
2019-03-30T10:31:32.184Z,16.00
2019-03-30T10:33:59.097Z,16.00
2019-03-30T10:36:25.862Z,16.10
2019-03-30T10:38:52.204Z,16.30
2019-03-30T10:41:18.547Z,16.30
2019-03-30T10:43:44.893Z,16.30
2019-03-30T10:46:11.229Z,16.20
2019-03-30T10:48:42.703Z,16.50
2019-03-30T10:51:09.081Z,16.60
2019-03-30T10:53:35.468Z,16.50
2019-03-30T10:56:02.110Z,16.60
2019-03-30T10:58:28.494Z,16.80
2019-03-30T11:00:55.340Z,16.80
2019-03-30T11:03:22.090Z,16.50
2019-03-30T11:05:48.552Z,16.50
2019-03-30T11:08:15.395Z,16.60
2019-03-30T11:10:42.061Z,16.70
2019-03-30T11:13:08.396Z,17.00
2019-03-30T11:15:35.002Z,17.00
2019-03-30T11:18:01.338Z,16.80
2019-03-30T11:20:27.983Z,17.10
2019-03-30T11:22:54.340Z,17.40
2019-03-30T11:25:20.672Z,17.50
2019-03-30T11:27:47.031Z,17.40
2019-03-30T11:30:13.918Z,17.50
2019-03-30T11:32:41.910Z,17.60
2019-03-30T11:35:08.349Z,18.00
2019-03-30T11:37:35.089Z,18.50
2019-03-30T11:40:04.256Z,19.20
2019-03-30T11:42:30.580Z,20.80
2019-03-30T11:44:56.975Z,22.00
2019-03-30T11:47:24.146Z,22.60
2019-03-30T11:49:50.507Z,22.60
2019-03-30T11:52:16.819Z,23.70
2019-03-30T11:54:43.171Z,24.20
2019-03-30T11:57:09.536Z,25.50
2019-03-30T11:59:35.904Z,24.80
2019-03-30T12:02:02.436Z,25.80
2019-03-30T12:04:29.112Z,25.70
2019-03-30T12:06:55.758Z,26.30
2019-03-30T12:09:22.388Z,27.20
2019-03-30T12:11:48.747Z,27.20
2019-03-30T12:14:15.372Z,26.80
2019-03-30T12:16:42.012Z,25.70
2019-03-30T12:19:08.854Z,25.00
2019-03-30T12:21:35.180Z,27.30
2019-03-30T12:24:01.921Z,24.90
2019-03-30T12:26:28.660Z,24.80
2019-03-30T12:28:55.341Z,26.00
2019-03-30T12:31:22.279Z,28.00
2019-03-30T12:33:48.724Z,28.20
2019-03-30T12:36:16.701Z,26.90
2019-03-30T12:38:43.489Z,27.10
2019-03-30T12:41:10.025Z,29.60
2019-03-30T12:43:38.962Z,29.90
2019-03-30T12:46:04.570Z,26.50
2019-03-30T12:48:31.389Z,29.40
2019-03-30T12:50:58.018Z,30.30
2019-03-30T12:53:24.535Z,30.40
2019-03-30T12:55:51.193Z,28.50
2019-03-30T12:58:17.529Z,29.20
2019-03-30T13:00:44.369Z,30.00
2019-03-30T13:03:11.996Z,28.80
2019-03-30T13:05:38.672Z,29.00
2019-03-30T13:08:05.004Z,29.10
2019-03-30T13:10:31.732Z,29.20
2019-03-30T13:12:58.076Z,28.80
2019-03-30T13:15:24.814Z,29.40
2019-03-30T13:17:51.269Z,31.40
2019-03-30T13:20:17.626Z,31.90
2019-03-30T13:22:43.983Z,31.10
2019-03-30T13:25:10.451Z,29.90
2019-03-30T13:27:36.798Z,27.50
2019-03-30T13:30:07.915Z,30.00
2019-03-30T13:32:34.758Z,32.10
2019-03-30T13:35:01.219Z,33.10
2019-03-30T13:37:27.579Z,31.80
2019-03-30T13:39:54.372Z,30.70
2019-03-30T13:42:23.886Z,31.50
2019-03-30T13:44:50.202Z,32.30
2019-03-30T13:47:16.573Z,31.80
2019-03-30T13:49:42.870Z,29.50
2019-03-30T13:52:09.277Z,32.30
2019-03-30T13:54:38.600Z,32.80
2019-03-30T13:57:03.906Z,33.50
2019-03-30T13:59:30.261Z,34.50
2019-03-30T14:01:56.579Z,34.90
2019-03-30T14:04:22.961Z,35.10
2019-03-30T14:06:49.638Z,32.60
2019-03-30T14:09:16.237Z,33.50
2019-03-30T14:11:42.932Z,32.30
2019-03-30T14:14:09.273Z,31.90
2019-03-30T14:16:35.889Z,32.60
2019-03-30T14:19:02.768Z,33.70
2019-03-30T14:21:29.476Z,33.40
2019-03-30T14:23:57.755Z,33.60
2019-03-30T14:26:31.108Z,34.10
2019-03-30T14:28:52.996Z,33.20
2019-03-30T14:31:19.621Z,32.80
2019-03-30T14:33:46.375Z,33.30
2019-03-30T14:36:12.707Z,33.30
2019-03-30T14:38:39.438Z,34.20
2019-03-30T14:41:06.171Z,35.00
2019-03-30T14:43:32.490Z,34.70
2019-03-30T14:45:59.066Z,33.90
2019-03-30T14:48:25.868Z,31.70
2019-03-30T14:50:52.208Z,31.10
2019-03-30T14:53:18.568Z,30.80
2019-03-30T14:55:45.016Z,30.70
2019-03-30T14:58:11.349Z,30.70
2019-03-30T15:00:37.740Z,31.00
2019-03-30T15:03:04.580Z,28.80
2019-03-30T15:05:30.983Z,28.80
2019-03-30T15:07:57.991Z,29.00
2019-03-30T15:10:24.331Z,29.50
2019-03-30T15:12:51.546Z,29.40
2019-03-30T15:15:18.185Z,30.40
2019-03-30T15:17:44.509Z,30.80
2019-03-30T15:20:11.409Z,30.40
2019-03-30T15:22:37.704Z,30.60
2019-03-30T15:25:08.301Z,31.10
2019-03-30T15:27:35.160Z,29.60
2019-03-30T15:30:04.912Z,29.90
2019-03-30T15:32:31.526Z,30.90
2019-03-30T15:34:58.538Z,31.80
2019-03-30T15:37:25.270Z,31.60
2019-03-30T15:39:51.615Z,31.80
2019-03-30T15:42:18.281Z,31.30
2019-03-30T15:44:44.688Z,31.00
2019-03-30T15:47:11.071Z,31.30
2019-03-30T15:49:37.375Z,31.70
2019-03-30T15:52:13.699Z,30.40
2019-03-30T15:54:32.286Z,30.70
2019-03-30T15:56:58.596Z,31.10
2019-03-30T15:59:24.937Z,30.70
2019-03-30T16:01:51.294Z,30.50
2019-03-30T16:04:17.689Z,30.30
2019-03-30T16:06:44.669Z,29.40
2019-03-30T16:09:11.062Z,29.40
2019-03-30T16:11:37.399Z,29.10
2019-03-30T16:14:03.820Z,28.20
2019-03-30T16:16:30.910Z,27.70
2019-03-30T16:18:57.250Z,27.20
2019-03-30T16:21:23.870Z,26.10
2019-03-30T16:23:50.211Z,24.70
2019-03-30T16:26:16.536Z,23.50
2019-03-30T16:28:42.920Z,22.60
2019-03-30T16:31:09.647Z,22.20
2019-03-30T16:33:41.304Z,21.60
2019-03-30T16:36:07.611Z,21.30
2019-03-30T16:38:34.036Z,21.10
2019-03-30T16:41:00.873Z,20.80
2019-03-30T16:43:27.215Z,20.60
2019-03-30T16:45:53.546Z,20.40
2019-03-30T16:48:20.082Z,20.30
2019-03-30T16:50:46.520Z,20.00
2019-03-30T16:53:13.242Z,20.00
2019-03-30T16:55:39.889Z,19.90
2019-03-30T16:58:06.218Z,19.80
2019-03-30T17:00:32.568Z,19.70
2019-03-30T17:03:00.931Z,19.60
2019-03-30T17:05:27.417Z,19.40
2019-03-30T17:07:54.098Z,19.30
2019-03-30T17:10:20.489Z,19.10
2019-03-30T17:12:47.067Z,18.90
2019-03-30T17:15:13.436Z,18.70
2019-03-30T17:17:40.137Z,18.60
2019-03-30T17:20:07.368Z,18.40
2019-03-30T17:22:34.033Z,18.30
2019-03-30T17:25:00.783Z,18.10
2019-03-30T17:27:27.109Z,17.80
2019-03-30T17:29:53.486Z,17.70
2019-03-30T17:32:19.839Z,17.50
2019-03-30T17:34:46.259Z,17.30
2019-03-30T17:37:14.434Z,17.10
2019-03-30T17:39:41.204Z,16.90
2019-03-30T17:42:07.550Z,16.80
2019-03-30T17:44:33.928Z,16.60
2019-03-30T17:47:00.636Z,16.40
2019-03-30T17:49:27.250Z,16.30
2019-03-30T17:51:54.110Z,16.00
2019-03-30T17:54:20.544Z,15.90
2019-03-30T17:56:46.889Z,15.70
2019-03-30T17:59:13.702Z,15.60
2019-03-30T18:01:40.222Z,15.40
2019-03-30T18:04:06.854Z,15.30
2019-03-30T18:06:33.553Z,15.20
2019-03-30T18:08:59.952Z,15.00
2019-03-30T18:11:26.435Z,14.90
2019-03-30T18:13:53.142Z,14.80
2019-03-30T18:16:22.377Z,14.70
2019-03-30T18:18:48.774Z,14.60
2019-03-30T18:21:15.104Z,14.50
2019-03-30T18:23:41.837Z,14.50
2019-03-30T18:26:08.628Z,14.40
2019-03-30T18:28:35.323Z,14.30
2019-03-30T18:31:02.101Z,14.20
2019-03-30T18:33:29.033Z,14.20
2019-03-30T18:35:55.632Z,14.10
2019-03-30T18:38:22.072Z,14.10
2019-03-30T18:40:48.426Z,14.10
2019-03-30T18:43:14.941Z,14.10
2019-03-30T18:45:41.568Z,14.10
2019-03-30T18:48:16.026Z,14.00
2019-03-30T18:50:44.515Z,13.90
2019-03-30T18:53:11.011Z,13.80
2019-03-30T18:55:37.655Z,13.70
2019-03-30T18:58:04.111Z,13.60
2019-03-30T19:00:30.492Z,13.50
2019-03-30T19:02:56.941Z,13.50
2019-03-30T19:05:23.275Z,13.40
2019-03-30T19:07:50.433Z,13.30
2019-03-30T19:10:16.774Z,13.20
2019-03-30T19:12:43.403Z,13.10
2019-03-30T19:15:10.038Z,13.10
2019-03-30T19:17:36.399Z,13.00
2019-03-30T19:20:05.673Z,12.90
2019-03-30T19:22:31.999Z,12.90
2019-03-30T19:24:58.760Z,12.80
2019-03-30T19:27:25.090Z,12.80
2019-03-30T19:29:51.847Z,12.70
2019-03-30T19:32:18.194Z,12.60
2019-03-30T19:34:44.888Z,12.60
2019-03-30T19:37:11.647Z,12.50
2019-03-30T19:39:38.372Z,12.40
2019-03-30T19:42:05.012Z,12.30
2019-03-30T19:44:31.831Z,12.30
2019-03-30T19:46:58.243Z,12.20
2019-03-30T19:49:24.596Z,12.10
2019-03-30T19:51:51.293Z,12.00
2019-03-30T19:54:17.674Z,11.90
2019-03-30T19:56:44.036Z,11.90
2019-03-30T19:59:11.380Z,11.90
2019-03-30T20:01:38.336Z,11.80
2019-03-30T20:04:07.529Z,11.80
2019-03-30T20:06:33.344Z,11.70
2019-03-30T20:08:59.820Z,11.70
2019-03-30T20:11:26.247Z,11.60
2019-03-30T20:13:52.718Z,11.50
2019-03-30T20:16:19.042Z,11.50
2019-03-30T20:18:45.404Z,11.40
2019-03-30T20:21:11.761Z,11.30
2019-03-30T20:23:38.385Z,11.30
2019-03-30T20:26:05.007Z,11.30
2019-03-30T20:28:31.360Z,11.30
2019-03-30T20:30:57.719Z,11.20
2019-03-30T20:33:24.251Z,11.20
2019-03-30T20:35:51.099Z,11.20
2019-03-30T20:38:17.775Z,11.20
2019-03-30T20:40:44.535Z,11.10
2019-03-30T20:43:10.863Z,11.10
2019-03-30T20:45:37.524Z,11.10
2019-03-30T20:48:03.945Z,10.90
2019-03-30T20:50:30.300Z,10.80
2019-03-30T20:52:56.674Z,10.80
2019-03-30T20:55:23.238Z,10.80
2019-03-30T20:57:49.616Z,10.70
2019-03-30T21:00:16.818Z,10.70
2019-03-30T21:02:43.210Z,10.60
2019-03-30T21:05:10.622Z,10.60
2019-03-30T21:07:37.486Z,10.60
2019-03-30T21:10:08.339Z,10.60
2019-03-30T21:12:34.773Z,10.60
2019-03-30T21:15:01.473Z,10.50
2019-03-30T21:17:27.855Z,10.50
2019-03-30T21:19:54.665Z,10.50
2019-03-30T21:22:21.315Z,10.50
2019-03-30T21:24:47.750Z,10.50
2019-03-30T21:27:14.073Z,10.40
2019-03-30T21:29:54.053Z,10.40
2019-03-30T21:32:08.663Z,10.30
2019-03-30T21:34:35.027Z,10.40
2019-03-30T21:37:01.369Z,10.30
2019-03-30T21:39:28.142Z,10.30
2019-03-30T21:41:54.519Z,10.30
2019-03-30T21:44:22.298Z,10.30
2019-03-30T21:46:49.435Z,10.30
2019-03-30T21:49:16.056Z,10.10
2019-03-30T21:51:42.794Z,10.00
2019-03-30T21:54:09.420Z,9.90
2019-03-30T21:56:35.825Z,9.80
2019-03-30T21:59:02.496Z,9.80
2019-03-30T22:01:29.139Z,9.80
2019-03-30T22:03:56.915Z,9.80
2019-03-30T22:06:23.264Z,9.80
2019-03-30T22:08:49.611Z,9.70
2019-03-30T22:11:16.256Z,9.70
2019-03-30T22:13:42.605Z,9.70
2019-03-30T22:16:09.272Z,9.70
2019-03-30T22:18:36.420Z,9.60
2019-03-30T22:21:02.730Z,9.60
2019-03-30T22:23:29.385Z,9.50
2019-03-30T22:25:55.762Z,9.50
2019-03-30T22:28:22.400Z,9.40
2019-03-30T22:30:48.787Z,9.40
2019-03-30T22:33:15.115Z,9.30
2019-03-30T22:35:41.794Z,9.30
2019-03-30T22:38:08.398Z,9.30
2019-03-30T22:40:35.068Z,9.30
2019-03-30T22:43:01.681Z,9.30
2019-03-30T22:45:28.023Z,9.20
2019-03-30T22:47:54.352Z,9.20
2019-03-30T22:50:21.093Z,9.10
2019-03-30T22:52:47.427Z,9.10
2019-03-30T22:55:13.796Z,9.10
2019-03-30T22:57:40.166Z,9.10
2019-03-30T23:00:09.182Z,9.00
2019-03-30T23:02:37.947Z,9.00
2019-03-30T23:05:04.832Z,9.00
2019-03-30T23:07:31.602Z,8.90
2019-03-30T23:09:57.965Z,8.90
2019-03-30T23:12:24.729Z,8.90
2019-03-30T23:14:53.001Z,8.90
2019-03-30T23:17:19.656Z,8.90
2019-03-30T23:19:46.041Z,8.90
2019-03-30T23:22:12.387Z,8.90
2019-03-30T23:24:38.762Z,8.90
2019-03-30T23:27:06.272Z,8.80
2019-03-30T23:29:32.610Z,8.80
2019-03-30T23:31:59.332Z,8.80
2019-03-30T23:34:26.127Z,8.90
2019-03-30T23:36:52.430Z,8.90
2019-03-30T23:39:18.789Z,8.80
2019-03-30T23:41:45.141Z,8.80
2019-03-30T23:44:11.479Z,8.80
2019-03-30T23:46:38.218Z,8.80
2019-03-30T23:49:05.430Z,8.80
2019-03-30T23:51:33.403Z,8.70
2019-03-30T23:54:00.342Z,8.70
2019-03-30T23:56:26.693Z,8.60
2019-03-30T23:58:53.324Z,8.60
